Time;durP1;ratioP1;P1;durP2;ratioP2;P2;SDS_P1;SDS_P2;PMS_P1;PMS_P2;Temp;Humidity;BMP_temperature;BMP_pressure;BME280_temperature;BME280_humidity;BME280_pressure;Samples;Min_cycle;Max_cycle;Signal;HPM_P1;HPM_P2
2024/02/25 00:00:35;;;;;;;;;;;;;;;8.31;100.00;97150.60;110484;1241;69145;-61
2024/02/25 00:03:24;;;;;;;;;;;;;;;8.32;100.00;97154.06;110442;1242;60995;-60
2024/02/25 00:05:53;;;;;;;;;;;;;;;8.30;100.00;97149.15;110378;1241;60450;-60
2024/02/25 00:08:22;;;;;;;;;;;;;;;8.24;100.00;97147.27;110352;1241;72238;-60
2024/02/25 00:10:51;;;;;;;;;;;;;;;8.16;100.00;97147.63;110421;1240;68252;-61
2024/02/25 00:13:20;;;;;;;;;;;;;;;8.10;100.00;97147.69;110402;1239;68338;-60
2024/02/25 00:15:49;;;;;;;;;;;;;;;8.03;100.00;97146.63;110472;1242;60547;-60
2024/02/25 00:18:18;;;;;;;;;;;;;;;7.96;100.00;97147.05;110344;1241;60482;-60
2024/02/25 00:20:47;;;;;;;;;;;;;;;7.90;100.00;97148.67;110373;1242;72705;-60
2024/02/25 00:23:16;;;;;;;;;;;;;;;7.86;100.00;97145.83;110526;1241;68269;-62
2024/02/25 00:25:45;;;;;;;;;;;;;;;7.85;100.00;97143.95;110498;1242;69258;-61
2024/02/25 00:28:14;;;;;;;;;;;;;;;7.84;100.00;97148.21;110392;1242;60540;-61
2024/02/25 00:30:42;;;;;;;;;;;;;;;7.82;100.00;97147.64;110339;1249;60479;-61
2024/02/25 00:33:11;;;;;;;;;;;;;;;7.80;100.00;97144.98;110197;1241;72764;-61
2024/02/25 00:35:40;;;;;;;;;;;;;;;7.79;100.00;97141.11;110375;1241;69197;-61
2024/02/25 00:38:10;;;;;;;;;;;;;;;7.79;100.00;97133.30;110403;1241;68374;-61
2024/02/25 00:40:40;;;;;;;;;;;;;;;7.82;100.00;97138.83;110346;1241;60489;-61
2024/02/25 00:43:26;;;;;;;;;;;;;;;7.87;100.00;97142.27;110364;1241;60446;-61
2024/02/25 00:45:55;;;;;;;;;;;;;;;7.93;100.00;97140.37;110380;1241;72820;-61
2024/02/25 00:48:24;;;;;;;;;;;;;;;7.98;100.00;97143.14;110384;1242;69276;-61
2024/02/25 00:50:53;;;;;;;;;;;;;;;8.04;100.00;97138.36;110386;1241;69882;-61
2024/02/25 00:53:22;;;;;;;;;;;;;;;8.10;100.00;97133.30;110454;1239;60547;-61
2024/02/25 00:55:51;;;;;;;;;;;;;;;8.19;100.00;97134.98;110326;1241;60428;-61
2024/02/25 00:58:19;;;;;;;;;;;;;;;8.26;100.00;97133.14;110352;1242;71853;-61
2024/02/25 01:00:50;;;;;;;;;;;;;;;8.29;100.00;97127.48;110452;1242;68934;-61
2024/02/25 01:03:18;;;;;;;;;;;;;;;8.26;100.00;97128.25;110441;1243;69174;-61
2024/02/25 01:05:47;;;;;;;;;;;;;;;8.24;100.00;97126.16;110428;1242;60578;-61
2024/02/25 01:08:16;;;;;;;;;;;;;;;8.23;100.00;97124.28;110376;1241;60451;-60
2024/02/25 01:10:45;;;;;;;;;;;;;;;8.23;100.00;97121.65;110348;1240;71152;-60
2024/02/25 01:13:14;;;;;;;;;;;;;;;8.23;100.00;97119.95;110353;1241;70155;-62
2024/02/25 01:15:43;;;;;;;;;;;;;;;8.21;100.00;97123.85;110375;1240;68310;-60
2024/02/25 01:18:12;;;;;;;;;;;;;;;8.21;100.00;97128.05;110453;1247;60540;-60
2024/02/25 01:20:42;;;;;;;;;;;;;;;8.22;100.00;97128.48;110388;1242;60467;-61
2024/02/25 01:23:11;;;;;;;;;;;;;;;8.23;100.00;97128.61;110556;1240;72771;-61
2024/02/25 01:25:39;;;;;;;;;;;;;;;8.23;100.00;97130.54;110547;1240;68660;-61
2024/02/25 01:28:09;;;;;;;;;;;;;;;8.21;100.00;97136.06;110333;1239;69051;-62
2024/02/25 01:30:38;;;;;;;;;;;;;;;8.20;100.00;97134.36;110535;1241;60545;-62
2024/02/25 01:33:06;;;;;;;;;;;;;;;8.20;100.00;97135.59;110460;1242;60444;-60
2024/02/25 01:35:35;;;;;;;;;;;;;;;8.20;100.00;97135.26;110387;1242;72223;-60
2024/02/25 01:38:04;;;;;;;;;;;;;;;8.19;100.00;97131.70;110438;1241;69747;-60
2024/02/25 01:40:33;;;;;;;;;;;;;;;8.19;100.00;97138.26;110338;1242;69280;-60
2024/02/25 01:43:20;;;;;;;;;;;;;;;8.20;100.00;97146.02;110445;1241;60548;-60
2024/02/25 01:45:49;;;;;;;;;;;;;;;8.22;100.00;97149.35;110350;1242;60478;-60
2024/02/25 01:48:19;;;;;;;;;;;;;;;8.23;100.00;97149.27;110389;1241;72977;-60
2024/02/25 01:50:49;;;;;;;;;;;;;;;8.24;100.00;97146.62;110372;1241;69708;-60
2024/02/25 01:53:18;;;;;;;;;;;;;;;8.24;100.00;97141.60;110375;1242;69028;-60
2024/02/25 01:55:49;;;;;;;;;;;;;;;8.25;100.00;97139.44;110345;1241;60481;-61
2024/02/25 01:58:19;;;;;;;;;;;;;;;8.24;100.00;97134.26;110338;1241;60401;-61
2024/02/25 02:00:49;;;;;;;;;;;;;;;8.25;100.00;97131.27;110368;1240;72613;-61
2024/02/25 02:03:17;;;;;;;;;;;;;;;8.26;100.00;97130.81;110357;1241;69202;-61
2024/02/25 02:05:47;;;;;;;;;;;;;;;8.28;100.00;97128.98;110309;1240;69415;-60
2024/02/25 02:08:16;;;;;;;;;;;;;;;8.31;100.00;97130.52;110444;1242;60860;-61
2024/02/25 02:10:44;;;;;;;;;;;;;;;8.31;100.00;97124.20;110400;1242;60485;-60
2024/02/25 02:13:16;;;;;;;;;;;;;;;8.33;100.00;97125.00;110398;1241;72753;-60
2024/02/25 02:15:45;;;;;;;;;;;;;;;8.34;100.00;97127.31;110454;1241;70083;-60
2024/02/25 02:18:14;;;;;;;;;;;;;;;8.36;100.00;97129.98;110464;1244;70191;-60
2024/02/25 02:20:46;;;;;;;;;;;;;;;8.38;100.00;97125.71;110373;1241;60498;-61
2024/02/25 02:23:14;;;;;;;;;;;;;;;8.39;100.00;97117.61;110363;1243;60434;-61
2024/02/25 02:25:43;;;;;;;;;;;;;;;8.41;100.00;97113.13;110543;1242;72620;-61
2024/02/25 02:28:12;;;;;;;;;;;;;;;8.42;100.00;97106.86;110411;1242;69244;-60
2024/02/25 02:30:40;;;;;;;;;;;;;;;8.43;100.00;97105.57;110442;1242;69057;-60
2024/02/25 02:33:09;;;;;;;;;;;;;;;8.44;100.00;97110.17;110443;1243;60585;-60
2024/02/25 02:35:38;;;;;;;;;;;;;;;8.46;100.00;97108.34;110420;1241;60514;-60
2024/02/25 02:38:11;;;;;;;;;;;;;;;8.47;100.00;97107.53;110451;1241;71228;-60
2024/02/25 02:40:41;;;;;;;;;;;;;;;8.48;100.00;97102.13;110449;1243;69728;-60
2024/02/25 02:43:10;;;;;;;;;;;;;;;8.49;100.00;97097.37;110440;1242;67699;-60
2024/02/25 02:45:39;;;;;;;;;;;;;;;8.48;100.00;97100.90;110403;1240;60473;-60
2024/02/25 02:48:09;;;;;;;;;;;;;;;8.47;100.00;97110.84;110399;1241;60492;-60
2024/02/25 02:50:38;;;;;;;;;;;;;;;8.48;100.00;97115.30;110389;1241;71694;-61
2024/02/25 02:53:07;;;;;;;;;;;;;;;8.49;100.00;97115.04;110397;1241;69491;-61
2024/02/25 02:55:35;;;;;;;;;;;;;;;8.50;100.00;97106.95;110375;1242;69168;-61
2024/02/25 02:58:04;;;;;;;;;;;;;;;8.49;100.00;97104.29;110407;1242;60466;-61
2024/02/25 03:00:34;;;;;;;;;;;;;;;8.47;100.00;97104.08;110172;1244;60488;-61
2024/02/25 03:03:03;;;;;;;;;;;;;;;8.43;100.00;97105.23;110331;1241;71973;-61
2024/02/25 03:05:32;;;;;;;;;;;;;;;8.37;100.00;97113.05;110367;1242;69307;-61
2024/02/25 03:08:01;;;;;;;;;;;;;;;8.32;100.00;97117.23;110319;1242;68140;-61
2024/02/25 03:10:30;;;;;;;;;;;;;;;8.26;100.00;97121.83;110335;1241;60529;-61
2024/02/25 03:12:58;;;;;;;;;;;;;;;8.20;100.00;97121.02;110212;1245;60559;-61
2024/02/25 03:15:27;;;;;;;;;;;;;;;8.15;100.00;97119.90;110333;1240;72209;-61
2024/02/25 03:17:56;;;;;;;;;;;;;;;8.14;100.00;97123.80;110334;1241;69426;-60
2024/02/25 03:20:25;;;;;;;;;;;;;;;8.14;100.00;97124.65;110533;1241;68896;-61
2024/02/25 03:22:54;;;;;;;;;;;;;;;8.15;100.00;97121.34;110336;1244;60547;-61
2024/02/25 03:25:22;;;;;;;;;;;;;;;8.14;100.00;97120.52;110372;1242;60520;-60
2024/02/25 03:27:51;;;;;;;;;;;;;;;8.13;100.00;97120.73;110352;1242;72125;-60
2024/02/25 03:30:21;;;;;;;;;;;;;;;8.11;100.00;97125.45;110376;1242;69898;-60
2024/02/25 03:32:49;;;;;;;;;;;;;;;8.08;100.00;97130.61;110349;1243;69091;-61
2024/02/25 03:35:18;;;;;;;;;;;;;;;8.06;100.00;97131.33;110317;1241;60545;-60
2024/02/25 03:37:47;;;;;;;;;;;;;;;8.03;100.00;97129.05;110302;1242;60428;-60
2024/02/25 03:40:17;;;;;;;;;;;;;;;8.02;100.00;97124.30;110355;1242;72129;-60
2024/02/25 03:42:46;;;;;;;;;;;;;;;7.99;100.00;97126.04;110362;1242;68412;-61
2024/02/25 03:45:15;;;;;;;;;;;;;;;7.96;100.00;97126.07;110373;1242;70150;-60
2024/02/25 03:47:44;;;;;;;;;;;;;;;7.94;100.00;97123.95;110380;1242;60474;-61
2024/02/25 03:50:14;;;;;;;;;;;;;;;7.93;100.00;97128.37;110397;1241;60430;-61
2024/02/25 03:52:42;;;;;;;;;;;;;;;7.92;100.00;97126.71;110425;1239;72191;-60
2024/02/25 03:55:11;;;;;;;;;;;;;;;7.90;100.00;97129.23;110395;1242;69840;-60
2024/02/25 03:57:39;;;;;;;;;;;;;;;7.87;100.00;97128.77;110348;1242;69232;-59
2024/02/25 04:00:08;;;;;;;;;;;;;;;7.83;100.00;97125.91;110250;1242;60609;-60
2024/02/25 04:02:37;;;;;;;;;;;;;;;7.79;100.00;97122.16;110355;1241;60497;-60
2024/02/25 04:05:07;;;;;;;;;;;;;;;7.75;100.00;97119.84;110382;1242;72118;-60
2024/02/25 04:07:36;;;;;;;;;;;;;;;7.73;100.00;97121.35;110406;1240;69300;-61
2024/02/25 04:10:05;;;;;;;;;;;;;;;7.70;100.00;97123.13;110450;1242;69272;-60
2024/02/25 04:12:33;;;;;;;;;;;;;;;7.66;100.00;97124.77;110349;1242;60459;-60
2024/02/25 04:15:02;;;;;;;;;;;;;;;7.61;100.00;97129.41;110317;1241;60921;-60
2024/02/25 04:17:31;;;;;;;;;;;;;;;7.57;100.00;97133.15;110343;1242;72095;-60
2024/02/25 04:20:01;;;;;;;;;;;;;;;7.54;100.00;97131.27;110192;1239;69217;-61
2024/02/25 04:22:30;;;;;;;;;;;;;;;7.54;100.00;97138.23;110361;1242;69890;-60
2024/02/25 04:24:58;;;;;;;;;;;;;;;7.52;100.00;97143.34;110354;1239;60548;-60
2024/02/25 04:27:27;;;;;;;;;;;;;;;7.51;100.00;97141.49;110369;1241;60885;-60
2024/02/25 04:29:56;;;;;;;;;;;;;;;7.53;100.00;97147.31;110375;1241;72157;-61
2024/02/25 04:32:24;;;;;;;;;;;;;;;7.54;100.00;97147.90;110353;1239;69844;-61
2024/02/25 04:34:53;;;;;;;;;;;;;;;7.56;100.00;97150.41;110434;1242;69281;-61
2024/02/25 04:37:22;;;;;;;;;;;;;;;7.58;100.00;97148.88;110353;1242;60589;-61
2024/02/25 04:39:51;;;;;;;;;;;;;;;7.59;100.00;97147.04;110373;1242;60477;-61
2024/02/25 04:42:19;;;;;;;;;;;;;;;7.62;100.00;97145.48;110402;1242;72974;-61
2024/02/25 04:44:48;;;;;;;;;;;;;;;7.65;100.00;97149.27;110345;1242;69601;-61
2024/02/25 04:47:16;;;;;;;;;;;;;;;7.69;100.00;97147.84;110349;1243;69875;-61
2024/02/25 04:49:47;;;;;;;;;;;;;;;7.73;100.00;97142.34;110345;1243;60560;-60
2024/02/25 04:52:16;;;;;;;;;;;;;;;7.77;100.00;97144.50;110334;1241;60479;-59
2024/02/25 04:54:44;;;;;;;;;;;;;;;7.79;100.00;97145.94;110380;1242;72251;-62
2024/02/25 04:57:13;;;;;;;;;;;;;;;7.80;100.00;97145.48;110485;1239;69212;-62
2024/02/25 04:59:44;;;;;;;;;;;;;;;7.80;100.00;97150.18;110421;1241;69186;-61
2024/02/25 05:02:13;;;;;;;;;;;;;;;7.80;100.00;97151.05;110439;1241;60631;-62
2024/02/25 05:04:42;;;;;;;;;;;;;;;7.80;100.00;97149.87;110452;1242;60471;-62
2024/02/25 05:07:10;;;;;;;;;;;;;;;7.80;100.00;97148.97;110422;1241;72622;-61
2024/02/25 05:09:39;;;;;;;;;;;;;;;7.80;100.00;97151.27;110450;1242;69215;-61
2024/02/25 05:12:08;;;;;;;;;;;;;;;7.79;100.00;97151.71;110474;1241;69796;-61
2024/02/25 05:14:37;;;;;;;;;;;;;;;7.77;100.00;97148.90;110372;1241;60422;-60
2024/02/25 05:17:05;;;;;;;;;;;;;;;7.73;100.00;97152.04;110435;1242;60543;-61
2024/02/25 05:19:34;;;;;;;;;;;;;;;7.70;100.00;97156.27;110369;1241;72166;-61
2024/02/25 05:22:03;;;;;;;;;;;;;;;7.67;100.00;97157.13;110445;1242;69753;-62
2024/02/25 05:24:32;;;;;;;;;;;;;;;7.64;100.00;97161.64;110403;1241;69102;-62
2024/02/25 05:27:00;;;;;;;;;;;;;;;7.63;100.00;97161.88;110315;1241;60468;-62
2024/02/25 05:29:29;;;;;;;;;;;;;;;7.64;100.00;97165.28;110168;1243;60433;-62
2024/02/25 05:31:58;;;;;;;;;;;;;;;7.66;100.00;97155.81;110415;1242;72377;-61
2024/02/25 05:34:27;;;;;;;;;;;;;;;7.71;100.00;97153.11;110418;1242;69634;-61
2024/02/25 05:36:56;;;;;;;;;;;;;;;7.75;100.00;97148.67;110364;1244;69864;-61
2024/02/25 05:39:25;;;;;;;;;;;;;;;7.77;100.00;97150.23;110323;1249;60544;-61
2024/02/25 05:41:53;;;;;;;;;;;;;;;7.80;100.00;97151.42;110343;1242;60855;-61
2024/02/25 05:44:23;;;;;;;;;;;;;;;7.84;100.00;97148.58;110458;1240;71211;-61
2024/02/25 05:46:52;;;;;;;;;;;;;;;7.89;100.00;97151.00;110391;1241;68732;-61
2024/02/25 05:49:21;;;;;;;;;;;;;;;7.94;100.00;97149.65;110383;1241;69808;-62
2024/02/25 05:51:49;;;;;;;;;;;;;;;7.97;100.00;97144.06;110323;1242;60567;-61
2024/02/25 05:54:18;;;;;;;;;;;;;;;7.98;100.00;97137.60;110330;1241;60542;-62
2024/02/25 05:56:47;;;;;;;;;;;;;;;7.96;100.00;97135.13;110398;1241;72161;-62
2024/02/25 05:59:16;;;;;;;;;;;;;;;7.90;100.00;97132.75;110465;1242;68265;-61
2024/02/25 06:01:48;;;;;;;;;;;;;;;7.85;100.00;97133.73;110347;1241;70043;-62
2024/02/25 06:04:19;;;;;;;;;;;;;;;7.84;100.00;97132.05;110303;1242;60555;-61
2024/02/25 06:06:52;;;;;;;;;;;;;;;7.85;100.00;97132.22;110448;1242;60485;-62
2024/02/25 06:09:21;;;;;;;;;;;;;;;7.90;100.00;97134.83;110440;1241;72934;-61
2024/02/25 06:11:50;;;;;;;;;;;;;;;7.98;100.00;97137.09;110356;1242;70186;-62
2024/02/25 06:14:19;;;;;;;;;;;;;;;8.08;100.00;97143.68;110354;1242;69760;-62
2024/02/25 06:16:48;;;;;;;;;;;;;;;8.18;100.00;97148.52;109923;1242;542283;-61
2024/02/25 06:19:17;;;;;;;;;;;;;;;8.30;100.00;97150.00;110391;1242;60488;-62
2024/02/25 06:21:45;;;;;;;;;;;;;;;8.41;100.00;97150.68;110383;1241;71403;-61
2024/02/25 06:24:14;;;;;;;;;;;;;;;8.48;100.00;97154.89;110386;1241;67828;-62
2024/02/25 06:26:46;;;;;;;;;;;;;;;8.48;100.00;97154.71;110354;1248;68734;-62
2024/02/25 06:29:16;;;;;;;;;;;;;;;8.53;100.00;97156.27;110412;1249;60540;-62
2024/02/25 06:31:46;;;;;;;;;;;;;;;8.58;100.00;97155.08;110433;1239;60425;-62
2024/02/25 06:34:14;;;;;;;;;;;;;;;8.62;100.00;97149.77;110353;1239;72128;-62
2024/02/25 06:36:44;;;;;;;;;;;;;;;8.66;100.00;97141.32;110348;1240;69174;-61
2024/02/25 06:39:12;;;;;;;;;;;;;;;8.71;100.00;97137.33;110329;1242;69151;-61
2024/02/25 06:41:41;;;;;;;;;;;;;;;8.80;100.00;97136.02;110357;1241;60519;-61
2024/02/25 06:44:10;;;;;;;;;;;;;;;8.93;100.00;97138.20;110381;1239;60891;-60
2024/02/25 06:46:40;;;;;;;;;;;;;;;9.08;100.00;97131.77;110332;1242;72599;-60
2024/02/25 06:49:09;;;;;;;;;;;;;;;9.25;100.00;97138.20;110366;1240;68766;-60
2024/02/25 06:51:38;;;;;;;;;;;;;;;9.42;100.00;97142.17;110312;1242;69342;-61
2024/02/25 06:54:07;;;;;;;;;;;;;;;9.60;100.00;97140.54;110342;1244;60535;-62
2024/02/25 06:56:36;;;;;;;;;;;;;;;9.77;100.00;97140.68;110334;1241;60444;-62
2024/02/25 06:59:05;;;;;;;;;;;;;;;9.92;100.00;97136.95;110355;1242;72250;-62
2024/02/25 07:01:34;;;;;;;;;;;;;;;10.07;100.00;97137.52;110532;1241;70287;-62
2024/02/25 07:04:03;;;;;;;;;;;;;;;10.24;100.00;97134.25;110473;1244;69772;-62
2024/02/25 07:06:32;;;;;;;;;;;;;;;10.40;100.00;97136.48;110487;1243;60471;-62
2024/02/25 07:09:01;;;;;;;;;;;;;;;10.56;100.00;97138.25;110373;1241;60476;-61
2024/02/25 07:11:31;;;;;;;;;;;;;;;10.76;100.00;97135.11;110400;1242;72929;-60
2024/02/25 07:14:01;;;;;;;;;;;;;;;11.00;100.00;97131.14;110377;1242;69913;-61
2024/02/25 07:16:29;;;;;;;;;;;;;;;11.23;100.00;97127.93;110421;1241;69088;-61
2024/02/25 07:18:58;;;;;;;;;;;;;;;11.42;100.00;97126.16;110454;1243;60566;-62
2024/02/25 07:21:27;;;;;;;;;;;;;;;11.61;100.00;97124.52;110460;1241;60541;-62
2024/02/25 07:23:55;;;;;;;;;;;;;;;11.86;99.63;97119.72;110465;1242;72122;-62
2024/02/25 07:26:24;;;;;;;;;;;;;;;12.13;99.24;97112.71;110470;1242;68774;-63
2024/02/25 07:28:53;;;;;;;;;;;;;;;12.44;96.72;97111.48;110479;1250;68301;-61
2024/02/25 07:31:22;;;;;;;;;;;;;;;12.70;87.18;97105.58;110397;1244;60506;-61
2024/02/25 07:33:51;;;;;;;;;;;;;;;13.02;87.73;97103.34;110448;1242;60476;-61
2024/02/25 07:36:20;;;;;;;;;;;;;;;13.37;87.52;97105.21;110426;1241;71097;-60
2024/02/25 07:38:48;;;;;;;;;;;;;;;13.70;82.73;97103.30;110493;1242;68236;-61
2024/02/25 07:41:17;;;;;;;;;;;;;;;14.04;79.54;97105.23;110371;1242;70044;-61
2024/02/25 07:43:46;;;;;;;;;;;;;;;14.42;74.64;97105.64;110405;1242;60509;-61
2024/02/25 07:46:14;;;;;;;;;;;;;;;14.82;68.16;97111.48;110163;1243;60495;-61
2024/02/25 07:48:45;;;;;;;;;;;;;;;15.19;67.26;97108.69;110356;1244;71998;-60
2024/02/25 07:51:15;;;;;;;;;;;;;;;15.55;68.84;97106.06;110333;1242;69768;-61
2024/02/25 07:53:45;;;;;;;;;;;;;;;15.75;63.96;97108.70;110172;1244;69448;-61
2024/02/25 07:56:18;;;;;;;;;;;;;;;16.01;68.03;97114.02;110373;1242;60540;-61
2024/02/25 07:58:47;;;;;;;;;;;;;;;16.23;69.80;97115.30;110381;1249;60427;-61
2024/02/25 08:01:16;;;;;;;;;;;;;;;16.38;65.43;97114.72;110354;1241;72939;-62
2024/02/25 08:03:45;;;;;;;;;;;;;;;16.43;64.19;97112.58;110339;1242;69674;-61
2024/02/25 08:06:23;;;;;;;;;;;;;;;16.61;68.63;97112.54;110179;1242;69270;-62
2024/02/25 08:08:53;;;;;;;;;;;;;;;16.56;63.07;97115.67;110387;1242;60550;-59
2024/02/25 08:11:21;;;;;;;;;;;;;;;16.64;67.12;97115.23;110424;1241;60478;-61
2024/02/25 08:13:51;;;;;;;;;;;;;;;16.64;63.95;97116.07;110458;1242;72163;-60
2024/02/25 08:16:19;;;;;;;;;;;;;;;16.54;59.42;97114.30;110433;1242;67565;-60
2024/02/25 08:18:49;;;;;;;;;;;;;;;16.57;59.12;97110.71;110452;1242;69908;-60
2024/02/25 08:21:19;;;;;;;;;;;;;;;16.63;60.64;97107.80;110342;1242;60537;-59
2024/02/25 08:23:47;;;;;;;;;;;;;;;16.74;62.04;97109.84;110388;1242;60534;-60
2024/02/25 08:26:17;;;;;;;;;;;;;;;16.70;57.66;97107.11;110395;1243;72217;-60
2024/02/25 08:28:45;;;;;;;;;;;;;;;16.61;59.88;97103.91;110440;1243;69057;-60
2024/02/25 08:31:14;;;;;;;;;;;;;;;16.52;59.17;97103.75;110340;1249;69194;-60
2024/02/25 08:33:44;;;;;;;;;;;;;;;16.48;59.94;97110.35;110444;1242;60530;-60
2024/02/25 08:36:13;;;;;;;;;;;;;;;16.43;60.36;97109.60;110350;1240;60537;-59
2024/02/25 08:38:42;;;;;;;;;;;;;;;16.29;59.17;97111.36;110354;1244;72579;-59
2024/02/25 08:41:10;;;;;;;;;;;;;;;16.29;60.18;97114.72;110460;1242;68593;-60
2024/02/25 08:43:39;;;;;;;;;;;;;;;16.23;58.20;97113.78;110351;1249;69845;-61
2024/02/25 08:46:09;;;;;;;;;;;;;;;16.23;58.23;97109.38;110352;1243;60512;-61
2024/02/25 08:48:38;;;;;;;;;;;;;;;16.33;60.79;97110.45;110527;1242;60467;-62
2024/02/25 08:51:08;;;;;;;;;;;;;;;16.38;61.11;97110.11;110424;1242;72903;-62
2024/02/25 08:53:38;;;;;;;;;;;;;;;16.39;59.14;97103.15;110454;1241;69166;-59
2024/02/25 08:56:06;;;;;;;;;;;;;;;16.42;57.45;97103.56;110443;1242;69857;-61
2024/02/25 08:58:35;;;;;;;;;;;;;;;16.46;59.07;97105.10;110459;1241;60484;-61
2024/02/25 09:01:04;;;;;;;;;;;;;;;16.43;59.10;97104.33;110422;1241;60466;-62
2024/02/25 09:03:33;;;;;;;;;;;;;;;16.38;60.46;97102.75;110344;1242;71779;-60
2024/02/25 09:06:18;;;;;;;;;;;;;;;16.39;60.52;97100.70;110359;1242;69093;-60
2024/02/25 09:08:47;;;;;;;;;;;;;;;16.37;60.32;97100.74;110313;1242;69280;-60
2024/02/25 09:11:16;;;;;;;;;;;;;;;16.20;57.14;97097.70;110327;1239;60528;-60
2024/02/25 09:13:45;;;;;;;;;;;;;;;16.20;59.62;97092.23;110356;1242;60531;-60
2024/02/25 09:16:13;;;;;;;;;;;;;;;16.16;59.34;97091.66;110407;1249;71604;-60
2024/02/25 09:18:42;;;;;;;;;;;;;;;16.10;57.37;97094.31;110449;1242;68472;-61
2024/02/25 09:21:12;;;;;;;;;;;;;;;16.11;58.95;97092.30;110366;1242;69874;-60
2024/02/25 09:23:41;;;;;;;;;;;;;;;16.16;58.49;97092.27;110324;1240;60914;-60
2024/02/25 09:26:13;;;;;;;;;;;;;;;16.20;58.88;97094.88;110361;1241;60533;-61
2024/02/25 09:28:56;;;;;;;;;;;;;;;16.37;58.69;97097.80;110369;1241;72151;-60
2024/02/25 09:31:24;;;;;;;;;;;;;;;16.37;57.42;97088.08;110335;1242;69133;-60
2024/02/25 09:33:54;;;;;;;;;;;;;;;16.44;58.15;97089.13;110387;1243;69237;-61
2024/02/25 09:36:25;;;;;;;;;;;;;;;16.55;58.12;97089.60;110535;1243;60527;-60
2024/02/25 09:38:53;;;;;;;;;;;;;;;16.65;57.38;97087.56;110554;1241;60565;-60
2024/02/25 09:41:27;;;;;;;;;;;;;;;16.71;57.46;97087.08;110488;1240;71551;-60
2024/02/25 09:43:56;;;;;;;;;;;;;;;16.72;57.34;97088.38;110379;1242;70042;-61
2024/02/25 09:46:26;;;;;;;;;;;;;;;16.86;55.67;97088.41;110332;1242;69880;-61
2024/02/25 09:48:54;;;;;;;;;;;;;;;16.97;54.95;97085.14;110382;1242;60496;-61
2024/02/25 09:51:24;;;;;;;;;;;;;;;17.18;55.09;97084.44;110357;1244;60515;-62
2024/02/25 09:53:53;;;;;;;;;;;;;;;17.43;57.61;97080.14;110333;1240;72809;-60
2024/02/25 09:56:22;;;;;;;;;;;;;;;17.59;58.33;97077.17;110345;1242;68137;-60
2024/02/25 09:58:51;;;;;;;;;;;;;;;17.63;52.09;97073.77;110337;1242;70226;-60
2024/02/25 10:01:20;;;;;;;;;;;;;;;17.72;55.09;97074.52;110309;1242;60862;-61
2024/02/25 10:03:49;;;;;;;;;;;;;;;17.66;52.58;97075.53;110349;1242;60428;-60
2024/02/25 10:06:18;;;;;;;;;;;;;;;17.65;51.45;97071.59;110356;1242;72133;-60
2024/02/25 10:08:48;;;;;;;;;;;;;;;17.78;53.39;97072.29;110368;1241;69873;-60
2024/02/25 10:11:17;;;;;;;;;;;;;;;17.83;52.56;97071.14;110339;1242;69794;-60
2024/02/25 10:13:47;;;;;;;;;;;;;;;17.94;54.57;97063.27;110307;1241;60639;-60
2024/02/25 10:16:18;;;;;;;;;;;;;;;18.02;53.93;97060.09;110342;1248;60460;-60
2024/02/25 10:18:50;;;;;;;;;;;;;;;18.09;54.03;97059.09;110303;1241;73453;-60
2024/02/25 10:21:20;;;;;;;;;;;;;;;18.14;53.96;97059.08;110335;1241;68954;-60
2024/02/25 10:23:53;;;;;;;;;;;;;;;18.16;53.77;97057.10;110328;1241;69233;-61
2024/02/25 10:26:25;;;;;;;;;;;;;;;18.11;51.24;97052.73;110373;1245;60544;-61
2024/02/25 10:29:05;;;;;;;;;;;;;;;18.19;53.15;97049.92;110345;1241;60546;-61
2024/02/25 10:31:34;;;;;;;;;;;;;;;18.28;52.60;97041.43;110397;1242;72863;-61
2024/02/25 10:34:02;;;;;;;;;;;;;;;18.29;52.70;97040.27;110311;1242;69121;-61
2024/02/25 10:36:32;;;;;;;;;;;;;;;18.31;51.93;97041.92;110284;1242;69175;-61
2024/02/25 10:39:02;;;;;;;;;;;;;;;18.27;51.28;97034.89;110424;1241;60467;-61
2024/02/25 10:41:31;;;;;;;;;;;;;;;18.34;51.68;97036.44;110356;1243;60517;-60
2024/02/25 10:44:01;;;;;;;;;;;;;;;18.37;51.39;97035.27;110351;1242;72623;-60
2024/02/25 10:46:30;;;;;;;;;;;;;;;18.45;52.00;97036.64;110334;1242;69740;-60
2024/02/25 10:49:01;;;;;;;;;;;;;;;18.45;50.01;97035.04;110339;1240;69765;-60
2024/02/25 10:51:32;;;;;;;;;;;;;;;18.47;50.18;97033.45;110380;1241;60494;-60
2024/02/25 10:54:02;;;;;;;;;;;;;;;18.56;49.95;97031.63;110361;1239;60540;-60
2024/02/25 10:56:31;;;;;;;;;;;;;;;18.53;48.70;97033.46;110316;1242;72953;-61
2024/02/25 10:59:00;;;;;;;;;;;;;;;18.39;48.91;97028.67;110380;1242;69813;-60
2024/02/25 11:01:29;;;;;;;;;;;;;;;18.40;49.09;97029.67;110357;1241;70168;-60
2024/02/25 11:03:59;;;;;;;;;;;;;;;18.34;49.21;97025.36;110296;1248;60508;-60
2024/02/25 11:06:32;;;;;;;;;;;;;;;18.34;49.50;97026.20;110349;1242;60533;-60
2024/02/25 11:09:06;;;;;;;;;;;;;;;18.33;49.49;97023.30;110460;1241;72597;-61
2024/02/25 11:11:35;;;;;;;;;;;;;;;18.42;49.07;97023.04;110328;1243;69903;-60
2024/02/25 11:14:11;;;;;;;;;;;;;;;18.49;48.82;97019.05;110318;1242;69236;-60
2024/02/25 11:16:46;;;;;;;;;;;;;;;18.58;48.76;97018.10;110166;1243;60574;-60
2024/02/25 11:19:15;;;;;;;;;;;;;;;18.58;48.64;97015.77;110387;1241;60453;-60
2024/02/25 11:21:51;;;;;;;;;;;;;;;18.65;48.72;97012.38;110318;1241;72157;-60
2024/02/25 11:24:39;;;;;;;;;;;;;;;18.70;48.05;97011.25;110359;1243;69644;-60
2024/02/25 11:27:08;;;;;;;;;;;;;;;18.63;47.74;97003.09;110309;1239;69101;-60
2024/02/25 11:29:37;;;;;;;;;;;;;;;18.58;47.64;97001.15;110328;1241;60544;-60
2024/02/25 11:32:07;;;;;;;;;;;;;;;18.69;48.41;96994.77;110359;1241;60575;-62
2024/02/25 11:34:37;;;;;;;;;;;;;;;18.87;47.70;96998.96;110414;1242;72428;-60
2024/02/25 11:37:07;;;;;;;;;;;;;;;19.00;47.91;96995.70;110344;1241;68769;-60
2024/02/25 11:39:36;;;;;;;;;;;;;;;19.05;47.63;96994.39;110352;1241;68399;-60
2024/02/25 11:42:05;;;;;;;;;;;;;;;18.98;46.27;96987.25;110321;1241;60496;-61
2024/02/25 11:44:36;;;;;;;;;;;;;;;18.82;46.17;96986.23;110422;1248;60473;-60
2024/02/25 11:47:08;;;;;;;;;;;;;;;18.65;46.82;96984.85;110380;1241;72227;-61
2024/02/25 11:49:37;;;;;;;;;;;;;;;18.69;47.08;96981.92;110397;1241;68770;-60
2024/02/25 11:52:07;;;;;;;;;;;;;;;18.71;46.46;96979.38;110343;1242;70065;-60
2024/02/25 11:54:35;;;;;;;;;;;;;;;18.65;46.79;96979.00;110425;1241;60476;-60
2024/02/25 11:57:04;;;;;;;;;;;;;;;18.54;46.43;96980.55;110368;1241;60475;-60
2024/02/25 11:59:34;;;;;;;;;;;;;;;18.49;46.66;96977.10;110319;1241;73160;-60
2024/02/25 12:02:04;;;;;;;;;;;;;;;18.32;47.05;96974.26;110313;1239;69203;-59
2024/02/25 12:04:33;;;;;;;;;;;;;;;18.33;47.24;96975.56;110336;1241;69666;-59
2024/02/25 12:07:04;;;;;;;;;;;;;;;18.37;46.99;96971.55;110309;1241;60515;-61
2024/02/25 12:09:33;;;;;;;;;;;;;;;18.34;47.04;96972.52;110466;1241;60481;-60
2024/02/25 12:12:02;;;;;;;;;;;;;;;18.12;47.23;96969.14;110161;1245;72728;-60
2024/02/25 12:14:37;;;;;;;;;;;;;;;17.94;47.41;96965.77;110351;1241;69175;-60
2024/02/25 12:17:07;;;;;;;;;;;;;;;17.90;47.45;96962.66;110291;1242;70187;-60
2024/02/25 12:19:36;;;;;;;;;;;;;;;18.01;47.60;96958.11;110347;1242;60516;-60
2024/02/25 12:22:07;;;;;;;;;;;;;;;18.03;47.83;96959.98;110350;1244;60729;-60
2024/02/25 12:24:36;;;;;;;;;;;;;;;17.99;47.78;96957.59;110360;1239;72645;-60
2024/02/25 12:27:04;;;;;;;;;;;;;;;17.96;48.12;96953.92;110349;1241;68288;-60
2024/02/25 12:29:38;;;;;;;;;;;;;;;18.05;48.03;96956.73;110328;1242;69720;-61
2024/02/25 12:32:08;;;;;;;;;;;;;;;18.13;48.10;96952.89;110340;1242;60583;-61
2024/02/25 12:34:36;;;;;;;;;;;;;;;18.26;47.75;96947.38;110327;1241;60937;-58
2024/02/25 12:37:05;;;;;;;;;;;;;;;18.15;46.87;96940.11;110384;1242;72163;-58
2024/02/25 12:39:41;;;;;;;;;;;;;;;18.08;46.89;96941.05;110418;1241;69172;-57
2024/02/25 12:42:12;;;;;;;;;;;;;;;18.05;46.83;96937.58;110390;1241;69741;-61
2024/02/25 12:44:41;;;;;;;;;;;;;;;18.02;47.06;96932.34;110421;1241;60482;-61
2024/02/25 12:47:13;;;;;;;;;;;;;;;18.04;47.43;96927.11;110517;1242;60569;-61